sensor_id;sensor_type;location;lat;lon;timestamp;P1;durP1;ratioP1;P2;durP2;ratioP2
42420;SDS011;28063;48.140;11.588;2023-10-08T00:02:09;3.15;;;2.20;;
42420;SDS011;28063;48.140;11.588;2023-10-08T00:04:35;3.85;;;2.67;;
42420;SDS011;28063;48.140;11.588;2023-10-08T00:07:02;4.07;;;2.25;;
42420;SDS011;28063;48.140;11.588;2023-10-08T00:09:32;3.35;;;2.45;;
42420;SDS011;28063;48.140;11.588;2023-10-08T00:12:01;4.25;;;2.47;;
42420;SDS011;28063;48.140;11.588;2023-10-08T00:14:27;6.45;;;3.25;;
42420;SDS011;28063;48.140;11.588;2023-10-08T00:16:53;4.13;;;2.80;;
42420;SDS011;28063;48.140;11.588;2023-10-08T00:19:19;4.40;;;2.97;;
42420;SDS011;28063;48.140;11.588;2023-10-08T00:21:46;4.40;;;2.65;;
42420;SDS011;28063;48.140;11.588;2023-10-08T00:24:13;6.85;;;2.97;;
42420;SDS011;28063;48.140;11.588;2023-10-08T00:26:40;4.15;;;2.97;;
42420;SDS011;28063;48.140;11.588;2023-10-08T00:29:07;5.50;;;2.88;;
42420;SDS011;28063;48.140;11.588;2023-10-08T00:31:46;3.97;;;2.42;;
42420;SDS011;28063;48.140;11.588;2023-10-08T00:34:14;3.92;;;2.17;;
42420;SDS011;28063;48.140;11.588;2023-10-08T00:36:42;5.10;;;2.47;;
42420;SDS011;28063;48.140;11.588;2023-10-08T00:39:09;5.05;;;3.00;;
42420;SDS011;28063;48.140;11.588;2023-10-08T00:41:45;3.38;;;2.42;;
42420;SDS011;28063;48.140;11.588;2023-10-08T00:44:12;3.55;;;2.35;;
42420;SDS011;28063;48.140;11.588;2023-10-08T00:46:40;4.20;;;2.67;;
42420;SDS011;28063;48.140;11.588;2023-10-08T00:49:16;4.05;;;2.47;;
42420;SDS011;28063;48.140;11.588;2023-10-08T00:52:02;3.85;;;2.25;;
42420;SDS011;28063;48.140;11.588;2023-10-08T00:54:48;4.13;;;2.50;;
42420;SDS011;28063;48.140;11.588;2023-10-08T00:57:30;5.93;;;3.28;;
42420;SDS011;28063;48.140;11.588;2023-10-08T01:00:00;5.38;;;3.00;;
42420;SDS011;28063;48.140;11.588;2023-10-08T01:02:29;5.68;;;3.10;;
42420;SDS011;28063;48.140;11.588;2023-10-08T01:05:15;5.97;;;2.72;;
42420;SDS011;28063;48.140;11.588;2023-10-08T01:07:50;5.25;;;2.90;;
42420;SDS011;28063;48.140;11.588;2023-10-08T01:10:18;5.20;;;2.55;;
42420;SDS011;28063;48.140;11.588;2023-10-08T01:12:45;3.72;;;2.50;;
42420;SDS011;28063;48.140;11.588;2023-10-08T01:15:21;4.43;;;2.70;;
42420;SDS011;28063;48.140;11.588;2023-10-08T01:17:54;4.15;;;2.80;;
42420;SDS011;28063;48.140;11.588;2023-10-08T01:20:25;4.75;;;2.80;;
42420;SDS011;28063;48.140;11.588;2023-10-08T01:23:15;4.40;;;2.83;;
42420;SDS011;28063;48.140;11.588;2023-10-08T01:25:42;4.38;;;3.20;;
42420;SDS011;28063;48.140;11.588;2023-10-08T01:28:08;6.47;;;2.72;;
42420;SDS011;28063;48.140;11.588;2023-10-08T01:30:45;5.13;;;2.80;;
42420;SDS011;28063;48.140;11.588;2023-10-08T01:33:12;5.20;;;3.00;;
42420;SDS011;28063;48.140;11.588;2023-10-08T01:35:41;4.43;;;2.60;;
42420;SDS011;28063;48.140;11.588;2023-10-08T01:38:08;3.50;;;2.53;;
42420;SDS011;28063;48.140;11.588;2023-10-08T01:40:48;4.78;;;2.70;;
42420;SDS011;28063;48.140;11.588;2023-10-08T01:43:18;11.20;;;3.17;;
42420;SDS011;28063;48.140;11.588;2023-10-08T01:45:45;5.15;;;3.03;;
42420;SDS011;28063;48.140;11.588;2023-10-08T01:50:56;4.13;;;2.67;;
42420;SDS011;28063;48.140;11.588;2023-10-08T01:53:34;4.60;;;2.83;;
42420;SDS011;28063;48.140;11.588;2023-10-08T01:56:00;7.47;;;3.05;;
42420;SDS011;28063;48.140;11.588;2023-10-08T01:58:29;7.38;;;2.80;;
42420;SDS011;28063;48.140;11.588;2023-10-08T02:00:55;4.68;;;2.33;;
42420;SDS011;28063;48.140;11.588;2023-10-08T02:03:25;4.75;;;2.72;;
42420;SDS011;28063;48.140;11.588;2023-10-08T02:05:52;4.00;;;2.88;;
42420;SDS011;28063;48.140;11.588;2023-10-08T02:08:19;4.00;;;2.53;;
42420;SDS011;28063;48.140;11.588;2023-10-08T02:10:46;4.20;;;2.75;;
42420;SDS011;28063;48.140;11.588;2023-10-08T02:13:12;2.20;;;1.90;;
42420;SDS011;28063;48.140;11.588;2023-10-08T02:15:49;4.28;;;2.38;;
42420;SDS011;28063;48.140;11.588;2023-10-08T02:18:17;4.78;;;2.83;;
42420;SDS011;28063;48.140;11.588;2023-10-08T02:20:44;4.05;;;2.53;;
42420;SDS011;28063;48.140;11.588;2023-10-08T02:23:10;4.80;;;2.60;;
42420;SDS011;28063;48.140;11.588;2023-10-08T02:25:37;5.47;;;2.67;;
42420;SDS011;28063;48.140;11.588;2023-10-08T02:28:05;3.92;;;2.58;;
42420;SDS011;28063;48.140;11.588;2023-10-08T02:30:33;3.50;;;2.38;;
42420;SDS011;28063;48.140;11.588;2023-10-08T02:32:59;4.47;;;2.25;;
42420;SDS011;28063;48.140;11.588;2023-10-08T02:35:26;4.70;;;3.00;;
42420;SDS011;28063;48.140;11.588;2023-10-08T02:37:52;5.45;;;3.20;;
42420;SDS011;28063;48.140;11.588;2023-10-08T02:40:20;3.97;;;2.55;;
42420;SDS011;28063;48.140;11.588;2023-10-08T02:42:52;3.92;;;2.53;;
42420;SDS011;28063;48.140;11.588;2023-10-08T02:45:26;3.13;;;2.30;;
42420;SDS011;28063;48.140;11.588;2023-10-08T02:47:53;3.22;;;2.15;;
42420;SDS011;28063;48.140;11.588;2023-10-08T02:50:19;3.22;;;2.17;;
42420;SDS011;28063;48.140;11.588;2023-10-08T02:52:47;2.63;;;2.05;;
42420;SDS011;28063;48.140;11.588;2023-10-08T02:55:15;3.28;;;2.47;;
42420;SDS011;28063;48.140;11.588;2023-10-08T02:58:02;5.13;;;3.00;;
42420;SDS011;28063;48.140;11.588;2023-10-08T03:00:29;2.75;;;1.92;;
42420;SDS011;28063;48.140;11.588;2023-10-08T03:02:58;3.72;;;2.53;;
42420;SDS011;28063;48.140;11.588;2023-10-08T03:05:34;3.85;;;2.00;;
42420;SDS011;28063;48.140;11.588;2023-10-08T03:08:03;2.95;;;1.90;;
42420;SDS011;28063;48.140;11.588;2023-10-08T03:10:36;2.53;;;2.20;;
42420;SDS011;28063;48.140;11.588;2023-10-08T03:13:03;3.33;;;2.33;;
42420;SDS011;28063;48.140;11.588;2023-10-08T03:18:05;3.42;;;2.20;;
42420;SDS011;28063;48.140;11.588;2023-10-08T03:20:39;3.22;;;2.10;;
42420;SDS011;28063;48.140;11.588;2023-10-08T03:23:15;4.45;;;1.92;;
42420;SDS011;28063;48.140;11.588;2023-10-08T03:25:58;3.33;;;1.95;;
42420;SDS011;28063;48.140;11.588;2023-10-08T03:28:48;3.60;;;2.03;;
42420;SDS011;28063;48.140;11.588;2023-10-08T03:31:22;3.70;;;2.20;;
42420;SDS011;28063;48.140;11.588;2023-10-08T03:34:08;4.20;;;2.42;;
42420;SDS011;28063;48.140;11.588;2023-10-08T03:36:38;2.70;;;1.80;;
42420;SDS011;28063;48.140;11.588;2023-10-08T03:39:15;4.18;;;2.42;;
42420;SDS011;28063;48.140;11.588;2023-10-08T03:41:45;3.45;;;2.35;;
42420;SDS011;28063;48.140;11.588;2023-10-08T03:44:24;3.63;;;2.13;;
42420;SDS011;28063;48.140;11.588;2023-10-08T03:46:50;3.78;;;1.98;;
42420;SDS011;28063;48.140;11.588;2023-10-08T03:49:17;2.05;;;1.50;;
42420;SDS011;28063;48.140;11.588;2023-10-08T03:51:47;2.22;;;1.50;;
42420;SDS011;28063;48.140;11.588;2023-10-08T03:54:16;3.35;;;2.22;;
42420;SDS011;28063;48.140;11.588;2023-10-08T03:56:44;3.85;;;2.00;;
42420;SDS011;28063;48.140;11.588;2023-10-08T03:59:15;3.13;;;2.13;;
42420;SDS011;28063;48.140;11.588;2023-10-08T04:02:00;3.03;;;1.90;;
42420;SDS011;28063;48.140;11.588;2023-10-08T04:04:38;3.53;;;2.03;;
42420;SDS011;28063;48.140;11.588;2023-10-08T04:07:18;2.13;;;1.50;;
42420;SDS011;28063;48.140;11.588;2023-10-08T04:10:04;2.45;;;1.80;;
42420;SDS011;28063;48.140;11.588;2023-10-08T04:12:45;4.05;;;2.05;;
42420;SDS011;28063;48.140;11.588;2023-10-08T04:15:15;3.83;;;2.03;;
42420;SDS011;28063;48.140;11.588;2023-10-08T04:17:42;3.15;;;2.00;;
42420;SDS011;28063;48.140;11.588;2023-10-08T04:20:15;4.70;;;2.28;;
42420;SDS011;28063;48.140;11.588;2023-10-08T04:23:02;4.15;;;2.38;;
42420;SDS011;28063;48.140;11.588;2023-10-08T04:25:29;4.03;;;2.03;;
42420;SDS011;28063;48.140;11.588;2023-10-08T04:27:59;2.92;;;1.90;;
42420;SDS011;28063;48.140;11.588;2023-10-08T04:30:25;4.97;;;2.83;;
42420;SDS011;28063;48.140;11.588;2023-10-08T04:33:01;4.80;;;2.45;;
42420;SDS011;28063;48.140;11.588;2023-10-08T04:35:36;2.53;;;1.80;;
42420;SDS011;28063;48.140;11.588;2023-10-08T04:38:13;3.05;;;1.85;;
42420;SDS011;28063;48.140;11.588;2023-10-08T04:40:42;2.22;;;2.00;;
42420;SDS011;28063;48.140;11.588;2023-10-08T04:43:13;3.28;;;1.95;;
42420;SDS011;28063;48.140;11.588;2023-10-08T04:45:40;6.50;;;2.30;;
42420;SDS011;28063;48.140;11.588;2023-10-08T04:48:06;3.03;;;2.05;;
42420;SDS011;28063;48.140;11.588;2023-10-08T04:50:36;3.00;;;2.03;;
42420;SDS011;28063;48.140;11.588;2023-10-08T04:53:02;2.92;;;1.42;;
42420;SDS011;28063;48.140;11.588;2023-10-08T04:55:33;3.25;;;2.10;;
42420;SDS011;28063;48.140;11.588;2023-10-08T04:57:59;4.18;;;2.42;;
42420;SDS011;28063;48.140;11.588;2023-10-08T05:00:29;5.40;;;2.75;;
42420;SDS011;28063;48.140;11.588;2023-10-08T05:03:18;4.68;;;2.75;;
42420;SDS011;28063;48.140;11.588;2023-10-08T05:05:47;6.13;;;2.70;;
42420;SDS011;28063;48.140;11.588;2023-10-08T05:08:39;3.70;;;2.00;;
42420;SDS011;28063;48.140;11.588;2023-10-08T05:11:23;3.58;;;1.60;;
42420;SDS011;28063;48.140;11.588;2023-10-08T05:13:50;4.85;;;2.40;;
42420;SDS011;28063;48.140;11.588;2023-10-08T05:16:41;7.15;;;3.50;;
42420;SDS011;28063;48.140;11.588;2023-10-08T05:19:25;10.00;;;4.20;;
42420;SDS011;28063;48.140;11.588;2023-10-08T05:22:12;40.47;;;12.67;;
42420;SDS011;28063;48.140;11.588;2023-10-08T05:24:55;28.02;;;8.93;;
42420;SDS011;28063;48.140;11.588;2023-10-08T05:27:40;27.95;;;9.20;;
42420;SDS011;28063;48.140;11.588;2023-10-08T05:30:13;35.50;;;9.80;;
42420;SDS011;28063;48.140;11.588;2023-10-08T05:32:54;28.90;;;10.40;;
42420;SDS011;28063;48.140;11.588;2023-10-08T05:35:39;19.95;;;7.00;;
42420;SDS011;28063;48.140;11.588;2023-10-08T05:38:06;13.48;;;5.97;;
42420;SDS011;28063;48.140;11.588;2023-10-08T05:40:44;9.98;;;4.20;;
42420;SDS011;28063;48.140;11.588;2023-10-08T05:43:26;9.60;;;4.10;;
42420;SDS011;28063;48.140;11.588;2023-10-08T05:46:20;6.85;;;3.95;;
42420;SDS011;28063;48.140;11.588;2023-10-08T05:51:27;6.28;;;3.33;;
42420;SDS011;28063;48.140;11.588;2023-10-08T05:54:16;9.07;;;3.38;;
42420;SDS011;28063;48.140;11.588;2023-10-08T05:56:52;7.70;;;3.40;;
42420;SDS011;28063;48.140;11.588;2023-10-08T05:59:46;5.55;;;2.58;;
42420;SDS011;28063;48.140;11.588;2023-10-08T06:02:39;7.13;;;2.97;;
42420;SDS011;28063;48.140;11.588;2023-10-08T06:05:09;6.03;;;2.78;;
42420;SDS011;28063;48.140;11.588;2023-10-08T06:07:39;4.90;;;3.00;;
42420;SDS011;28063;48.140;11.588;2023-10-08T06:10:18;6.07;;;3.45;;
42420;SDS011;28063;48.140;11.588;2023-10-08T06:13:07;5.40;;;3.10;;
42420;SDS011;28063;48.140;11.588;2023-10-08T06:15:51;7.28;;;3.08;;
42420;SDS011;28063;48.140;11.588;2023-10-08T06:18:21;6.80;;;3.00;;
42420;SDS011;28063;48.140;11.588;2023-10-08T06:20:58;5.75;;;2.88;;
42420;SDS011;28063;48.140;11.588;2023-10-08T06:23:25;5.75;;;3.70;;
42420;SDS011;28063;48.140;11.588;2023-10-08T06:25:53;4.55;;;2.83;;
42420;SDS011;28063;48.140;11.588;2023-10-08T06:28:22;7.03;;;3.60;;
42420;SDS011;28063;48.140;11.588;2023-10-08T06:30:52;5.93;;;3.05;;
42420;SDS011;28063;48.140;11.588;2023-10-08T06:33:19;4.75;;;2.45;;
42420;SDS011;28063;48.140;11.588;2023-10-08T06:35:50;7.30;;;3.78;;
42420;SDS011;28063;48.140;11.588;2023-10-08T06:38:47;3.53;;;2.15;;
42420;SDS011;28063;48.140;11.588;2023-10-08T06:41:13;5.72;;;2.92;;
42420;SDS011;28063;48.140;11.588;2023-10-08T06:43:49;3.92;;;2.42;;
42420;SDS011;28063;48.140;11.588;2023-10-08T06:46:18;4.10;;;2.85;;
42420;SDS011;28063;48.140;11.588;2023-10-08T06:48:46;4.23;;;2.50;;
42420;SDS011;28063;48.140;11.588;2023-10-08T06:51:14;2.92;;;2.33;;
42420;SDS011;28063;48.140;11.588;2023-10-08T06:53:46;3.83;;;2.28;;
42420;SDS011;28063;48.140;11.588;2023-10-08T06:56:16;3.92;;;2.47;;
42420;SDS011;28063;48.140;11.588;2023-10-08T06:58:44;5.63;;;2.20;;
42420;SDS011;28063;48.140;11.588;2023-10-08T07:01:16;4.25;;;2.40;;
42420;SDS011;28063;48.140;11.588;2023-10-08T07:03:53;4.97;;;2.78;;
42420;SDS011;28063;48.140;11.588;2023-10-08T07:06:28;5.55;;;3.10;;
42420;SDS011;28063;48.140;11.588;2023-10-08T07:08:59;7.97;;;3.70;;
42420;SDS011;28063;48.140;11.588;2023-10-08T07:11:29;5.72;;;2.90;;
42420;SDS011;28063;48.140;11.588;2023-10-08T07:13:59;7.97;;;3.13;;
42420;SDS011;28063;48.140;11.588;2023-10-08T07:16:25;5.47;;;3.00;;
42420;SDS011;28063;48.140;11.588;2023-10-08T07:18:53;7.95;;;3.38;;
42420;SDS011;28063;48.140;11.588;2023-10-08T07:21:40;4.95;;;2.40;;
42420;SDS011;28063;48.140;11.588;2023-10-08T07:24:10;4.55;;;3.00;;
42420;SDS011;28063;48.140;11.588;2023-10-08T07:26:40;4.25;;;2.65;;
42420;SDS011;28063;48.140;11.588;2023-10-08T07:29:11;6.47;;;2.78;;
42420;SDS011;28063;48.140;11.588;2023-10-08T07:31:38;6.15;;;3.30;;
42420;SDS011;28063;48.140;11.588;2023-10-08T07:34:08;5.43;;;2.80;;
42420;SDS011;28063;48.140;11.588;2023-10-08T07:36:41;5.68;;;2.55;;
42420;SDS011;28063;48.140;11.588;2023-10-08T07:39:08;4.68;;;2.45;;
42420;SDS011;28063;48.140;11.588;2023-10-08T07:41:47;4.63;;;2.63;;
42420;SDS011;28063;48.140;11.588;2023-10-08T07:44:13;5.97;;;3.17;;
42420;SDS011;28063;48.140;11.588;2023-10-08T07:46:39;7.85;;;2.63;;
42420;SDS011;28063;48.140;11.588;2023-10-08T07:49:05;5.65;;;3.00;;
42420;SDS011;28063;48.140;11.588;2023-10-08T07:51:31;5.30;;;2.80;;
42420;SDS011;28063;48.140;11.588;2023-10-08T07:53:58;6.38;;;3.25;;
42420;SDS011;28063;48.140;11.588;2023-10-08T07:56:25;8.23;;;3.13;;
42420;SDS011;28063;48.140;11.588;2023-10-08T07:58:52;8.23;;;3.58;;
42420;SDS011;28063;48.140;11.588;2023-10-08T08:01:20;10.25;;;3.78;;
42420;SDS011;28063;48.140;11.588;2023-10-08T08:03:47;8.20;;;3.70;;
42420;SDS011;28063;48.140;11.588;2023-10-08T08:06:15;6.18;;;2.90;;
42420;SDS011;28063;48.140;11.588;2023-10-08T08:08:41;9.60;;;3.50;;
42420;SDS011;28063;48.140;11.588;2023-10-08T08:11:09;6.38;;;3.72;;
42420;SDS011;28063;48.140;11.588;2023-10-08T08:13:42;8.93;;;3.53;;
42420;SDS011;28063;48.140;11.588;2023-10-08T08:16:11;7.13;;;2.92;;
42420;SDS011;28063;48.140;11.588;2023-10-08T08:18:46;8.07;;;3.28;;
42420;SDS011;28063;48.140;11.588;2023-10-08T08:21:13;8.00;;;3.83;;
42420;SDS011;28063;48.140;11.588;2023-10-08T08:23:44;11.02;;;3.65;;
42420;SDS011;28063;48.140;11.588;2023-10-08T08:26:17;8.25;;;3.10;;
42420;SDS011;28063;48.140;11.588;2023-10-08T08:28:57;7.18;;;3.35;;
42420;SDS011;28063;48.140;11.588;2023-10-08T08:31:25;9.00;;;3.63;;
42420;SDS011;28063;48.140;11.588;2023-10-08T08:33:51;9.82;;;3.42;;
42420;SDS011;28063;48.140;11.588;2023-10-08T08:36:20;10.38;;;3.55;;
42420;SDS011;28063;48.140;11.588;2023-10-08T08:38:46;7.47;;;3.25;;
42420;SDS011;28063;48.140;11.588;2023-10-08T08:41:13;9.65;;;3.45;;
42420;SDS011;28063;48.140;11.588;2023-10-08T08:43:43;5.85;;;2.63;;
42420;SDS011;28063;48.140;11.588;2023-10-08T08:46:10;7.85;;;3.40;;
42420;SDS011;28063;48.140;11.588;2023-10-08T08:48:40;8.73;;;2.83;;
42420;SDS011;28063;48.140;11.588;2023-10-08T08:51:07;5.47;;;2.92;;
42420;SDS011;28063;48.140;11.588;2023-10-08T08:53:35;5.45;;;2.65;;
42420;SDS011;28063;48.140;11.588;2023-10-08T08:56:01;7.38;;;2.42;;
42420;SDS011;28063;48.140;11.588;2023-10-08T08:58:31;3.13;;;2.30;;
42420;SDS011;28063;48.140;11.588;2023-10-08T09:00:59;3.95;;;2.10;;
42420;SDS011;28063;48.140;11.588;2023-10-08T09:03:25;3.28;;;1.92;;
42420;SDS011;28063;48.140;11.588;2023-10-08T09:05:58;2.67;;;2.10;;
42420;SDS011;28063;48.140;11.588;2023-10-08T09:08:28;4.18;;;2.25;;
42420;SDS011;28063;48.140;11.588;2023-10-08T09:10:59;7.20;;;2.22;;
42420;SDS011;28063;48.140;11.588;2023-10-08T09:13:29;3.88;;;2.47;;
42420;SDS011;28063;48.140;11.588;2023-10-08T09:16:17;6.25;;;2.78;;
42420;SDS011;28063;48.140;11.588;2023-10-08T09:18:43;6.07;;;2.80;;
42420;SDS011;28063;48.140;11.588;2023-10-08T09:21:17;5.28;;;3.05;;
42420;SDS011;28063;48.140;11.588;2023-10-08T09:23:44;5.17;;;2.80;;
42420;SDS011;28063;48.140;11.588;2023-10-08T09:26:12;5.60;;;2.78;;
42420;SDS011;28063;48.140;11.588;2023-10-08T09:28:40;5.65;;;2.50;;
42420;SDS011;28063;48.140;11.588;2023-10-08T09:31:09;10.65;;;3.45;;
42420;SDS011;28063;48.140;11.588;2023-10-08T09:33:37;5.05;;;3.33;;
42420;SDS011;28063;48.140;11.588;2023-10-08T09:36:03;7.78;;;3.40;;
42420;SDS011;28063;48.140;11.588;2023-10-08T09:38:30;7.03;;;3.38;;
42420;SDS011;28063;48.140;11.588;2023-10-08T09:40:57;6.13;;;2.95;;
42420;SDS011;28063;48.140;11.588;2023-10-08T09:43:24;10.07;;;3.30;;
42420;SDS011;28063;48.140;11.588;2023-10-08T09:46:07;8.48;;;3.38;;
42420;SDS011;28063;48.140;11.588;2023-10-08T09:48:37;4.32;;;2.90;;
42420;SDS011;28063;48.140;11.588;2023-10-08T09:51:04;5.80;;;3.15;;
42420;SDS011;28063;48.140;11.588;2023-10-08T09:53:46;6.78;;;3.25;;
42420;SDS011;28063;48.140;11.588;2023-10-08T09:58:43;9.73;;;3.58;;
42420;SDS011;28063;48.140;11.588;2023-10-08T10:01:10;14.00;;;4.18;;
42420;SDS011;28063;48.140;11.588;2023-10-08T10:03:36;8.27;;;3.80;;
42420;SDS011;28063;48.140;11.588;2023-10-08T10:06:04;18.30;;;4.07;;
42420;SDS011;28063;48.140;11.588;2023-10-08T10:08:35;11.55;;;4.45;;
42420;SDS011;28063;48.140;11.588;2023-10-08T10:11:01;8.45;;;3.83;;
42420;SDS011;28063;48.140;11.588;2023-10-08T10:13:29;8.82;;;3.72;;
42420;SDS011;28063;48.140;11.588;2023-10-08T10:15:59;10.98;;;3.47;;
42420;SDS011;28063;48.140;11.588;2023-10-08T10:20:56;9.52;;;4.00;;
42420;SDS011;28063;48.140;11.588;2023-10-08T10:23:38;10.13;;;4.13;;
42420;SDS011;28063;48.140;11.588;2023-10-08T10:26:05;7.97;;;3.42;;
42420;SDS011;28063;48.140;11.588;2023-10-08T10:28:34;11.15;;;4.18;;
42420;SDS011;28063;48.140;11.588;2023-10-08T10:31:03;9.48;;;3.60;;
42420;SDS011;28063;48.140;11.588;2023-10-08T10:33:29;6.70;;;3.42;;
42420;SDS011;28063;48.140;11.588;2023-10-08T10:35:56;8.43;;;3.38;;
42420;SDS011;28063;48.140;11.588;2023-10-08T10:38:22;7.03;;;3.70;;
42420;SDS011;28063;48.140;11.588;2023-10-08T10:40:51;9.73;;;3.97;;
42420;SDS011;28063;48.140;11.588;2023-10-08T10:43:29;11.20;;;4.20;;
42420;SDS011;28063;48.140;11.588;2023-10-08T10:46:09;13.07;;;4.03;;
42420;SDS011;28063;48.140;11.588;2023-10-08T10:48:54;12.52;;;4.72;;
42420;SDS011;28063;48.140;11.588;2023-10-08T10:51:43;13.80;;;4.10;;
42420;SDS011;28063;48.140;11.588;2023-10-08T10:54:09;12.07;;;3.70;;
42420;SDS011;28063;48.140;11.588;2023-10-08T10:56:35;9.07;;;3.00;;
42420;SDS011;28063;48.140;11.588;2023-10-08T10:59:10;7.50;;;3.08;;
42420;SDS011;28063;48.140;11.588;2023-10-08T11:01:51;8.68;;;3.67;;
42420;SDS011;28063;48.140;11.588;2023-10-08T11:04:20;7.03;;;3.22;;
42420;SDS011;28063;48.140;11.588;2023-10-08T11:06:54;7.95;;;3.50;;
42420;SDS011;28063;48.140;11.588;2023-10-08T11:09:27;8.05;;;4.07;;
42420;SDS011;28063;48.140;11.588;2023-10-08T11:12:06;9.63;;;3.30;;
42420;SDS011;28063;48.140;11.588;2023-10-08T11:14:39;7.43;;;3.30;;
42420;SDS011;28063;48.140;11.588;2023-10-08T11:19:37;6.72;;;3.08;;
42420;SDS011;28063;48.140;11.588;2023-10-08T11:22:04;5.88;;;3.20;;
42420;SDS011;28063;48.140;11.588;2023-10-08T11:24:31;7.75;;;3.28;;
42420;SDS011;28063;48.140;11.588;2023-10-08T11:27:02;3.78;;;2.65;;
42420;SDS011;28063;48.140;11.588;2023-10-08T11:29:41;7.03;;;2.90;;
42420;SDS011;28063;48.140;11.588;2023-10-08T11:32:08;9.50;;;3.20;;
42420;SDS011;28063;48.140;11.588;2023-10-08T11:34:37;6.90;;;3.00;;
42420;SDS011;28063;48.140;11.588;2023-10-08T11:37:04;5.30;;;2.85;;
42420;SDS011;28063;48.140;11.588;2023-10-08T11:39:45;6.00;;;2.78;;
42420;SDS011;28063;48.140;11.588;2023-10-08T11:42:11;10.32;;;3.22;;
42420;SDS011;28063;48.140;11.588;2023-10-08T11:45:05;5.85;;;3.20;;
42420;SDS011;28063;48.140;11.588;2023-10-08T11:47:52;7.82;;;3.50;;
42420;SDS011;28063;48.140;11.588;2023-10-08T11:50:27;8.48;;;3.22;;
42420;SDS011;28063;48.140;11.588;2023-10-08T11:53:02;6.35;;;3.28;;
42420;SDS011;28063;48.140;11.588;2023-10-08T11:55:29;9.40;;;3.03;;
42420;SDS011;28063;48.140;11.588;2023-10-08T11:57:55;10.75;;;4.22;;
42420;SDS011;28063;48.140;11.588;2023-10-08T12:00:22;8.82;;;2.90;;
42420;SDS011;28063;48.140;11.588;2023-10-08T12:02:50;4.45;;;2.58;;
42420;SDS011;28063;48.140;11.588;2023-10-08T12:05:20;10.38;;;3.58;;
42420;SDS011;28063;48.140;11.588;2023-10-08T12:07:48;6.45;;;3.50;;
42420;SDS011;28063;48.140;11.588;2023-10-08T12:10:16;6.72;;;2.92;;
42420;SDS011;28063;48.140;11.588;2023-10-08T12:12:47;9.13;;;3.77;;
42420;SDS011;28063;48.140;11.588;2023-10-08T12:15:14;5.32;;;3.08;;
42420;SDS011;28063;48.140;11.588;2023-10-08T12:17:45;8.38;;;3.53;;
42420;SDS011;28063;48.140;11.588;2023-10-08T12:20:18;7.13;;;3.28;;
42420;SDS011;28063;48.140;11.588;2023-10-08T12:22:52;18.60;;;4.50;;
42420;SDS011;28063;48.140;11.588;2023-10-08T12:25:18;10.52;;;3.40;;
42420;SDS011;28063;48.140;11.588;2023-10-08T12:27:45;8.32;;;3.00;;
42420;SDS011;28063;48.140;11.588;2023-10-08T12:30:12;9.05;;;3.28;;
42420;SDS011;28063;48.140;11.588;2023-10-08T12:32:38;8.95;;;2.58;;
42420;SDS011;28063;48.140;11.588;2023-10-08T12:35:07;10.80;;;3.50;;
42420;SDS011;28063;48.140;11.588;2023-10-08T12:37:38;6.80;;;2.90;;
42420;SDS011;28063;48.140;11.588;2023-10-08T12:40:05;7.43;;;2.83;;
42420;SDS011;28063;48.140;11.588;2023-10-08T12:42:47;7.80;;;2.53;;
42420;SDS011;28063;48.140;11.588;2023-10-08T12:45:13;7.78;;;3.30;;
42420;SDS011;28063;48.140;11.588;2023-10-08T12:47:39;11.13;;;3.65;;
42420;SDS011;28063;48.140;11.588;2023-10-08T12:50:07;8.18;;;2.80;;
42420;SDS011;28063;48.140;11.588;2023-10-08T12:52:33;8.60;;;3.83;;
42420;SDS011;28063;48.140;11.588;2023-10-08T12:55:07;6.72;;;2.85;;
42420;SDS011;28063;48.140;11.588;2023-10-08T12:57:33;12.15;;;4.03;;
42420;SDS011;28063;48.140;11.588;2023-10-08T13:00:02;7.38;;;2.90;;
42420;SDS011;28063;48.140;11.588;2023-10-08T13:02:29;8.18;;;3.22;;
42420;SDS011;28063;48.140;11.588;2023-10-08T13:04:55;8.43;;;3.60;;
42420;SDS011;28063;48.140;11.588;2023-10-08T13:07:24;7.95;;;2.90;;
42420;SDS011;28063;48.140;11.588;2023-10-08T13:09:51;4.70;;;2.60;;
42420;SDS011;28063;48.140;11.588;2023-10-08T13:12:18;5.00;;;2.53;;
42420;SDS011;28063;48.140;11.588;2023-10-08T13:14:44;5.50;;;2.90;;
42420;SDS011;28063;48.140;11.588;2023-10-08T13:17:11;8.85;;;3.15;;
42420;SDS011;28063;48.140;11.588;2023-10-08T13:19:37;10.35;;;3.70;;
42420;SDS011;28063;48.140;11.588;2023-10-08T13:22:03;12.40;;;4.38;;
42420;SDS011;28063;48.140;11.588;2023-10-08T13:24:32;9.50;;;3.72;;
42420;SDS011;28063;48.140;11.588;2023-10-08T13:27:00;8.77;;;3.15;;
42420;SDS011;28063;48.140;11.588;2023-10-08T13:29:26;5.82;;;3.00;;
42420;SDS011;28063;48.140;11.588;2023-10-08T13:31:57;10.55;;;3.50;;
42420;SDS011;28063;48.140;11.588;2023-10-08T13:34:24;5.65;;;2.65;;
42420;SDS011;28063;48.140;11.588;2023-10-08T13:36:51;7.85;;;2.78;;
42420;SDS011;28063;48.140;11.588;2023-10-08T13:39:17;12.02;;;3.50;;
42420;SDS011;28063;48.140;11.588;2023-10-08T13:41:44;5.25;;;2.92;;
42420;SDS011;28063;48.140;11.588;2023-10-08T13:44:13;17.17;;;5.10;;
42420;SDS011;28063;48.140;11.588;2023-10-08T13:46:39;7.10;;;3.40;;
42420;SDS011;28063;48.140;11.588;2023-10-08T13:49:13;7.25;;;3.30;;
42420;SDS011;28063;48.140;11.588;2023-10-08T13:51:41;6.47;;;3.25;;
42420;SDS011;28063;48.140;11.588;2023-10-08T13:54:09;10.20;;;2.90;;
42420;SDS011;28063;48.140;11.588;2023-10-08T13:56:36;9.63;;;2.85;;
42420;SDS011;28063;48.140;11.588;2023-10-08T13:59:12;12.50;;;3.85;;
42420;SDS011;28063;48.140;11.588;2023-10-08T14:01:39;11.10;;;3.55;;
42420;SDS011;28063;48.140;11.588;2023-10-08T14:04:08;8.07;;;2.83;;
42420;SDS011;28063;48.140;11.588;2023-10-08T14:06:34;11.10;;;4.18;;
42420;SDS011;28063;48.140;11.588;2023-10-08T14:09:02;10.73;;;3.67;;
42420;SDS011;28063;48.140;11.588;2023-10-08T14:11:33;13.85;;;3.85;;
42420;SDS011;28063;48.140;11.588;2023-10-08T14:14:00;13.15;;;3.65;;
42420;SDS011;28063;48.140;11.588;2023-10-08T14:16:51;5.60;;;3.50;;
42420;SDS011;28063;48.140;11.588;2023-10-08T14:19:19;9.75;;;3.47;;
42420;SDS011;28063;48.140;11.588;2023-10-08T14:21:53;6.22;;;3.08;;
42420;SDS011;28063;48.140;11.588;2023-10-08T14:26:54;6.57;;;2.95;;
42420;SDS011;28063;48.140;11.588;2023-10-08T14:29:24;12.30;;;3.53;;
42420;SDS011;28063;48.140;11.588;2023-10-08T14:31:52;10.00;;;3.78;;
42420;SDS011;28063;48.140;11.588;2023-10-08T14:34:21;4.25;;;1.92;;
42420;SDS011;28063;48.140;11.588;2023-10-08T14:37:07;3.97;;;2.15;;
42420;SDS011;28063;48.140;11.588;2023-10-08T14:39:51;8.98;;;3.20;;
42420;SDS011;28063;48.140;11.588;2023-10-08T14:42:36;10.00;;;3.92;;
42420;SDS011;28063;48.140;11.588;2023-10-08T14:45:26;8.05;;;3.13;;
42420;SDS011;28063;48.140;11.588;2023-10-08T14:47:57;11.30;;;3.50;;
42420;SDS011;28063;48.140;11.588;2023-10-08T14:50:24;10.18;;;3.67;;
42420;SDS011;28063;48.140;11.588;2023-10-08T14:52:56;9.07;;;3.78;;
42420;SDS011;28063;48.140;11.588;2023-10-08T14:55:25;8.02;;;2.78;;
42420;SDS011;28063;48.140;11.588;2023-10-08T14:57:51;9.55;;;3.40;;
42420;SDS011;28063;48.140;11.588;2023-10-08T15:00:20;7.25;;;3.25;;
42420;SDS011;28063;48.140;11.588;2023-10-08T15:02:54;5.35;;;2.80;;
42420;SDS011;28063;48.140;11.588;2023-10-08T15:05:21;4.90;;;2.60;;
42420;SDS011;28063;48.140;11.588;2023-10-08T15:07:48;3.67;;;2.10;;
42420;SDS011;28063;48.140;11.588;2023-10-08T15:10:15;3.30;;;2.03;;
42420;SDS011;28063;48.140;11.588;2023-10-08T15:12:46;4.60;;;2.20;;
42420;SDS011;28063;48.140;11.588;2023-10-08T15:15:17;3.42;;;2.33;;
42420;SDS011;28063;48.140;11.588;2023-10-08T15:17:43;3.25;;;2.15;;